Airfield :
LOGIN :

Register | Disclaimer

   EN    FR    IT 

 










Legend :    VFR   Marginal VFR   IFR   Intensive IFR   Very Intensive IFR
Visi :
Ceiling :
>= 8 km
>= 3000ft
5 to 8 km
1000 to 3000 ft
1500m to 5 km
500 to 1000 ft
800 to 1500m
200 to 500 ft
< 800m
< 200 ft
Symbols :   Thunderstorms  Fog  Heavy snow  Heavy precipitations  Wind > 20 kt
SIGMETs :     Misc.  Thunderstorms  Icing  Turbulence  Mountain Waves  Volcanic Ashes






- Airport Elevation : 794 ft


LKCV - Čáslav Air Base

CURRENT METAR :
  • 281930Z 27004KT CAVOK 11/04 Q1015 NOSIG RMK BLU BLU

EXPIRED METARs :
  • 281900Z 29002KT CAVOK 12/03 Q1015 NOSIG RMK BLU BLU
  • 281830Z 32007KT CAVOK 13/03 Q1015 NOSIG RMK BLU BLU
  • 281800Z 31006KT CAVOK 14/03 Q1015 NOSIG
  • 281730Z 31013KT CAVOK 15/02 Q1014 NOSIG RMK BLU BLU
  • 281700Z 31013KT CAVOK 16/01 Q1014 NOSIG RMK BLU BLU

TAF TAF LKCV
Valid from the 28 at 18:00 until the 29 at 18:00 UTC


281700Z 2818/2918 31010KT CAVOK
BECMG 2819/2821 VRB02KT
TEMPO 2912/2918 7000 SHRA BKN030TCU
PROB30
TEMPO 2912/2917 30016G26KT 5000 TSRA BKN025CB



MET'MAP, your aeronautical weather chart ! - Copyright ORBIFLY December 2007 - Disclaimer

ORBIFLY MET'MAP TEAM :

Programming & Development : Alexandra Zaïnal
Original concept : Baudouin d'Aumeries
Technical & hardware support : Manuel Goepfert
Assistance : Marc-Olivier Méhu

Contact : metmap@orbifly.com




SOURCES & CREDITS :

   NOAA